Latest Weather Observations for Pound Creek

IDV60801

Issued at 12:32 am EST Saturday 22 July 2017 (issued every 30 minutes, with the page automatically refreshed every 10 minutes)

About weather observations | Map of weather stations | Latest weather observations for VIC | Other Formats
Station Details ID: 085099 Name: POUND CREEK Lat: -38.63 Lon: 145.81 Height: 3.0 m
Data from the previous 72 hours. | See also: Recent months at Pound Creek
Date/Time
EST
Temp
°C
App
Temp
°C
Dew
Point
°C
Rel
Hum
%
Delta-T
°C
Wind Press
QNH
hPa
Press
MSL
hPa
Rain since
9am
mm
Dir  Spd
km/h
Gust
km/h
Spd
kts
Gust
kts
22/12:30am 2.1 -0.5 1.2 94 0.3 NNE 4 6 2 3 1021.6 1021.6 0.2
22/12:00am 1.1 -1.7 -0.2 91 0.5 NNE 4 7 2 4 1021.9 1021.9 0.2
 
Date/Time
EST
Temp
°C
App
Temp
°C
Dew
Point
°C
Rel
Hum
%
Delta-T
°C
Wind Press
QNH
hPa
Press
MSL
hPa
Rain since
9am
mm
Dir  Spd
km/h
Gust
km/h
Spd
kts
Gust
kts
21/11:30pm 2.5 -0.4 1.5 93 0.4 NNE 6 7 3 4 1022.1 1022.1 0.2
21/11:00pm 3.7 0.8 2.7 93 0.4 N 7 9 4 5 1022.0 1022.0 0.2
21/10:30pm 3.2 0.4 2.0 92 0.5 N 6 9 3 5 1022.0 1022.0 0.2
21/10:00pm 5.0 2.0 4.0 93 0.4 N 9 13 5 7 1022.1 1022.1 0.2
21/09:30pm 3.3 0.3 2.1 92 0.5 N 7 9 4 5 1022.1 1022.1 0.2
21/09:00pm 4.3 1.5 3.4 94 0.4 NNE 7 9 4 5 1021.8 1021.8 0.2
21/08:30pm 3.4 1.0 2.2 92 0.5 NNE 4 6 2 3 1022.0 1022.0 0.2
21/08:00pm 3.8 1.1 2.5 91 0.5 N 6 9 3 5 1022.0 1022.0 0.2
21/07:30pm 4.8 2.1 3.6 92 0.5 N 7 9 4 5 1021.9 1021.9 0.2
21/07:00pm 3.4 1.3 1.6 88 0.7 NNE 2 7 1 4 1021.7 1021.7 0.2
21/06:30pm 5.8 3.2 4.0 88 0.8 N 7 9 4 5 1021.9 1021.9 0.2
21/06:00pm 6.0 3.8 3.5 84 1.0 ENE 4 6 2 3 1021.7 1021.7 0.2
21/05:30pm 7.9 6.2 4.1 77 1.6 WNW 2 4 1 2 1021.7 1021.7 0.2
21/05:00pm 10.4 8.1 4.8 68 2.5 WNW 6 6 3 3 1021.8 1021.8 0.2
21/04:30pm 12.1 9.9 5.3 63 3.1 WNW 6 7 3 4 1021.7 1021.7 0.2
21/04:00pm 13.0 11.3 5.7 61 3.4 NW 4 7 2 4 1021.9 1021.9 0.2
21/03:30pm 12.8 10.6 5.5 61 3.4 N 6 7 3 4 1021.9 1021.9 0.2
21/03:00pm 12.9 10.8 5.8 62 3.3 N 6 9 3 5 1021.8 1021.8 0.2
21/02:30pm 13.3 11.4 6.6 64 3.2 NW 6 11 3 6 1022.2 1022.2 0.2
21/02:00pm 13.2 11.3 6.8 65 3.1 NNE 6 9 3 5 1022.0 1022.0 0.2
21/01:30pm 12.8 11.0 7.0 68 2.8 NNE 6 7 3 4 1022.5 1022.5 0.2
21/01:00pm 12.9 11.3 7.8 71 2.5 NNW 6 9 3 5 1022.8 1022.8 0.2
21/12:30pm 12.7 11.2 8.6 76 2.0 NW 6 11 3 6 1023.4 1023.4 0.2
21/12:00pm 11.9 10.1 7.8 76 2.0 NNW 7 13 4 7 1023.9 1023.9 0.2
21/11:30am 11.0 9.0 7.3 78 1.8 NNW 7 11 4 6 1024.4 1024.4 0.2
21/11:00am 10.3 8.0 7.4 82 1.4 NNW 9 13 5 7 1024.7 1024.7 0.2
21/10:30am 9.3 7.0 7.4 88 0.9 NNW 9 15 5 8 1024.6 1024.6 0.2
21/10:00am 8.6 6.7 7.5 93 0.5 NW 7 13 4 7 1024.7 1024.7 0.2
21/09:30am 7.2 5.3 6.6 96 0.3 N 6 7 3 4 1024.6 1024.6 0.2
21/09:00am 4.1 2.7 3.7 97 0.2 CALM 0 0 0 0 1024.4 1024.4 2.4
21/08:30am 1.9 0.1 1.3 96 0.2 CALM 0 0 0 0 1024.2 1024.2 2.4
21/08:00am 1.6 -0.2 1.0 96 0.2 CALM 0 0 0 0 1023.8 1023.8 2.4
21/07:30am 1.0 -1.7 0.4 96 0.2 N 4 6 2 3 1023.5 1023.5 2.4
21/07:00am 1.0 -1.3 0.4 96 0.2 N 2 6 1 3 1023.3 1023.3 2.4
21/06:30am 1.0 -0.9 0.4 96 0.2 CALM 0 0 0 0 1022.7 1022.7 2.4
21/06:00am 1.4 -1.2 0.7 95 0.3 N 4 6 2 3 1022.5 1022.5 2.4
21/05:30am 2.0 -0.5 1.3 95 0.3 N 4 4 2 2 1022.3 1022.3 2.4
21/05:00am 2.7 0.6 2.0 95 0.3 N 2 4 1 2 1022.0 1022.0 2.4
21/04:30am 2.8 0.4 2.1 95 0.3 N 4 7 2 4 1021.9 1021.9 2.4
21/04:00am 2.3 -0.6 1.4 94 0.3 N 6 7 3 4 1021.7 1021.7 2.4
21/03:30am 4.2 1.6 3.3 94 0.4 NNE 6 11 3 6 1021.9 1021.9 2.4
21/03:00am 3.6 0.9 2.6 93 0.4 NNE 6 9 3 5 1021.9 1021.9 2.4
21/02:30am 4.6 2.8 3.4 92 0.5 NNE 2 7 1 4 1021.8 1021.8 2.4
21/02:00am 5.4 1.7 4.4 93 0.4 N 13 17 7 9 1021.7 1021.7 2.4
21/01:30am 5.1 2.4 3.9 92 0.5 N 7 11 4 6 1021.7 1021.7 2.4
21/01:00am 6.3 4.4 4.9 91 0.6 N 4 6 2 3 1021.9 1021.9 2.4
21/12:30am 7.2 5.0 6.0 92 0.5 NNW 7 9 4 5 1022.1 1022.1 2.4
21/12:00am 7.0 4.7 5.6 91 0.6 N 7 9 4 5 1022.1 1022.1 2.4
 
Date/Time
EST
Temp
°C
App
Temp
°C
Dew
Point
°C
Rel
Hum
%
Delta-T
°C
Wind Press
QNH
hPa
Press
MSL
hPa
Rain since
9am
mm
Dir  Spd
km/h
Gust
km/h
Spd
kts
Gust
kts
20/11:30pm 7.3 6.0 5.8 90 0.7 NE 2 4 1 2 1021.9 1021.9 2.4
20/11:00pm 7.0 4.8 5.3 89 0.7 NNW 6 7 3 4 1021.7 1021.7 2.4
20/10:30pm 7.1 4.9 5.1 87 0.9 N 6 7 3 4 1021.6 1021.6 2.4
20/10:00pm 7.7 5.9 5.2 84 1.1 E 4 4 2 2 1021.4 1021.4 2.4
20/09:30pm 8.0 6.2 5.3 83 1.2 ESE 4 6 2 3 1021.1 1021.1 2.4
20/09:00pm 9.5 5.8 6.2 80 1.5 S 15 17 8 9 1020.8 1020.8 2.4
20/08:30pm 9.3 5.1 5.7 78 1.6 S 17 20 9 11 1020.5 1020.5 2.4
20/08:00pm 9.2 4.9 5.2 76 1.8 S 17 24 9 13 1020.2 1020.2 2.4
20/07:30pm 9.6 5.3 5.4 75 1.9 SSW 17 22 9 12 1020.0 1020.0 2.4
20/07:00pm 9.8 4.9 5.2 73 2.1 SSW 20 28 11 15 1019.7 1019.7 2.4
20/06:30pm 10.2 4.9 5.2 71 2.3 SSW 22 30 12 16 1019.5 1019.5 2.4
20/06:00pm 10.3 5.0 4.9 69 2.4 SSW 22 32 12 17 1019.2 1019.2 2.4
20/05:30pm 10.5 4.9 5.3 70 2.4 SSW 24 33 13 18 1018.8 1018.8 2.4
20/05:00pm 10.4 4.0 5.2 70 2.4 SSW 28 37 15 20 1018.5 1018.5 2.4
20/04:30pm 10.5 4.0 4.9 68 2.5 SSW 28 39 15 21 1018.2 1018.2 2.4
20/04:00pm 10.4 3.5 4.8 68 2.5 SSW 30 41 16 22 1017.8 1017.8 2.4
20/03:30pm 10.4 3.2 4.8 68 2.5 SW 32 43 17 23 1017.8 1017.8 2.4
20/03:00pm 10.5 3.2 4.4 66 2.7 SW 32 46 17 25 1017.2 1017.2 2.4
20/02:30pm 9.9 3.7 4.5 69 2.4 SW 26 44 14 24 1017.1 1017.1 2.4
20/02:17pm 10.4 2.6 4.8 68 2.5 SW 35 63 19 34 1016.9 1016.9 2.4
20/02:00pm 10.9 2.7 4.6 65 2.8 SSW 37 50 20 27 1016.8 1016.8 2.4
20/01:30pm 10.7 3.8 4.8 67 2.7 SW 30 41 16 22 1016.4 1016.4 2.4
20/01:00pm 10.2 3.4 5.2 71 2.3 SW 30 39 16 21 1016.4 1016.4 2.4
20/12:30pm 10.1 2.8 5.5 73 2.1 SW 33 44 18 24 1016.2 1016.2 2.4
20/12:00pm 8.7 1.4 5.6 81 1.4 SSW 33 43 18 23 1016.3 1016.3 2.0
20/11:30am 8.1 1.7 5.0 81 1.4 SW 28 54 15 29 1016.5 1016.5 2.0
20/11:11am 9.0 1.9 5.6 79 1.5 SW 32 67 17 36 1016.6 1016.6 1.6
20/11:00am 8.2 1.3 4.4 77 1.7 WSW 30 44 16 24 1016.4 1016.4 1.6
20/10:32am 8.1 0.0 5.2 82 1.3 SW 37 70 20 38 1016.5 1016.5 0.2
20/10:30am 8.0 0.2 4.9 81 1.4 SW 35 54 19 29 1016.3 1016.3 0.0
20/10:19am 8.8 0.7 5.2 78 1.6 SSW 37 57 20 31 1016.3 1016.3 0.0
20/10:00am 9.5 1.0 5.1 74 2.0 SW 39 52 21 28 1015.8 1015.8 0.0
20/09:50am 9.9 1.6 5.9 76 1.8 SW 39 57 21 31 1015.7 1015.7 0.0
20/09:30am 9.8 1.1 4.0 67 2.6 SW 39 52 21 28 1015.3 1015.3 0.0
20/09:10am 9.5 2.0 6.2 80 1.5 WSW 35 54 19 29 1014.9 1014.9 0.0
20/09:00am 10.0 1.1 5.2 72 2.2 SW 41 52 22 28 1014.8 1014.8 6.2
20/08:32am 9.7 2.1 5.9 77 1.7 SW 35 56 19 30 1014.6 1014.6 6.2
20/08:30am 9.7 2.2 6.1 78 1.7 SW 35 48 19 26 1014.6 1014.6 6.2
20/08:10am 8.5 -0.7 5.3 80 1.4 WSW 43 70 23 38 1014.7 1014.7 6.2
20/08:07am 9.3 1.0 6.0 80 1.5 WSW 39 70 21 38 1014.5 1014.5 6.0
20/08:05am 9.7 2.5 5.7 76 1.8 WSW 33 59 18 32 1014.5 1014.5 6.0
20/08:00am 9.2 2.0 5.8 79 1.5 WSW 33 48 18 26 1014.3 1014.3 6.0
20/07:42am 9.2 1.3 6.1 81 1.4 WSW 37 57 20 31 1014.5 1014.5 6.0
20/07:30am 8.8 1.7 6.4 85 1.1 WSW 33 43 18 23 1014.3 1014.3 6.0
20/07:00am 9.1 1.8 7.1 87 0.9 SW 35 56 19 30 1014.4 1014.4 5.6
20/06:59am 9.0 1.6 6.8 86 1.0 WSW 35 56 19 30 1014.4 1014.4 5.6
20/06:30am 10.1 1.5 4.9 70 2.3 SW 39 54 21 29 1014.0 1014.0 5.4
20/06:03am 9.6 1.1 5.0 73 2.1 WSW 39 57 21 31 1013.8 1013.8 5.4
20/06:00am 9.5 0.6 4.9 73 2.1 SW 41 57 22 31 1013.8 1013.8 5.4
20/05:30am 10.1 2.0 5.1 71 2.3 SW 37 57 20 31 1013.6 1013.6 5.4
20/05:00am 10.4 1.7 3.9 64 2.9 SW 39 54 21 29 1013.5 1013.5 5.4
20/04:43am 10.3 1.3 4.7 68 2.5 SW 41 59 22 32 1013.5 1013.5 5.4
20/04:30am 10.3 1.4 4.9 69 2.4 SW 41 56 22 30 1013.4 1013.4 5.4
20/04:04am 9.2 2.4 6.8 85 1.1 WSW 32 52 17 28 1013.3 1013.3 5.4
20/04:00am 9.5 3.3 7.9 90 0.8 WSW 30 43 16 23 1013.3 1013.3 5.2
20/03:30am 9.1 2.3 7.9 92 0.6 WSW 33 50 18 27 1013.5 1013.5 5.2
20/03:04am 9.7 4.0 8.3 91 0.7 WSW 28 46 15 25 1013.9 1013.9 3.4
20/03:00am 9.4 3.6 8.0 91 0.7 WSW 28 39 15 21 1013.5 1013.5 3.4
20/02:30am 8.8 4.9 6.9 88 0.9 W 17 26 9 14 1013.6 1013.6 0.8
20/02:00am 9.1 5.2 6.9 86 1.0 WNW 17 33 9 18 1013.8 1013.8 0.6
20/01:30am 9.2 5.2 6.5 83 1.3 WNW 17 28 9 15 1014.1 1014.1 0.6
20/01:00am 9.4 4.0 6.5 82 1.3 W 24 33 13 18 1014.1 1014.1 0.6
20/12:30am 9.3 3.5 6.4 82 1.3 W 26 35 14 19 1014.3 1014.3 0.4
20/12:04am 10.1 3.8 5.9 75 1.9 W 28 46 15 25 1014.4 1014.4 0.4
20/12:00am 10.1 4.7 6.3 77 1.8 W 24 35 13 19 1014.6 1014.6 0.4
 
Date/Time
EST
Temp
°C
App
Temp
°C
Dew
Point
°C
Rel
Hum
%
Delta-T
°C
Wind Press
QNH
hPa
Press
MSL
hPa
Rain since
9am
mm
Dir  Spd
km/h
Gust
km/h
Spd
kts
Gust
kts
19/11:30pm 10.1 4.6 6.1 76 1.9 W 24 32 13 17 1014.9 1014.9 0.4
19/11:00pm 10.5 5.6 5.1 69 2.4 W 20 28 11 15 1015.3 1015.3 0.4
19/10:30pm 9.9 5.1 4.9 71 2.2 W 19 26 10 14 1015.8 1015.8 0.4
19/10:00pm 10.4 4.3 5.0 69 2.4 WSW 26 35 14 19 1015.9 1015.9 0.4
19/09:30pm 10.9 4.0 4.8 66 2.8 WSW 30 39 16 21 1016.4 1016.4 0.4
19/09:00pm 10.7 4.7 5.3 69 2.5 WSW 26 35 14 19 1016.4 1016.4 0.4
19/08:30pm 10.8 3.3 4.5 65 2.8 WSW 33 48 18 26 1016.5 1016.5 0.4
19/08:00pm 10.7 3.4 4.6 66 2.7 WSW 32 43 17 23 1016.3 1016.3 0.4
19/07:30pm 10.9 3.6 4.6 65 2.8 WSW 32 44 17 24 1016.1 1016.1 0.4
19/07:00pm 10.9 4.5 5.2 68 2.6 SW 28 37 15 20 1015.7 1015.7 0.4
19/06:30pm 10.9 2.9 3.9 62 3.1 SW 35 46 19 25 1015.5 1015.5 0.4
19/06:00pm 11.0 3.9 5.3 68 2.6 SW 32 41 17 22 1015.1 1015.1 0.4
19/05:30pm 11.0 3.6 5.1 67 2.7 SW 33 46 18 25 1015.2 1015.2 0.4
19/05:00pm 11.2 2.9 4.4 63 3.1 SW 37 48 20 26 1014.8 1014.8 0.4
19/04:30pm 11.5 4.2 5.6 67 2.7 SW 33 44 18 24 1014.5 1014.5 0.4
19/04:00pm 11.4 3.4 5.9 69 2.6 SW 37 48 20 26 1014.2 1014.2 0.4
19/03:30pm 11.7 4.4 7.2 74 2.2 SW 35 46 19 25 1013.7 1013.7 0.4
19/03:00pm 11.7 4.1 7.4 75 2.1 SW 37 50 20 27 1013.1 1013.1 0.4
19/02:30pm 12.0 4.7 8.8 81 1.6 SW 37 48 20 26 1012.6 1012.6 0.4
19/02:00pm 12.4 5.0 8.3 76 2.0 SW 37 57 20 31 1012.3 1012.3 0.4
19/01:41pm 12.8 5.6 9.3 79 1.8 SW 37 57 20 31 1012.1 1012.1 0.4
19/01:30pm 13.1 5.5 9.0 76 2.1 SW 39 54 21 29 1011.8 1011.8 0.4
19/01:11pm 12.8 5.4 8.5 75 2.1 SW 37 57 20 31 1011.4 1011.4 0.4
19/01:00pm 13.0 5.5 9.3 78 1.9 SSW 39 52 21 28 1011.3 1011.3 0.4
19/12:34pm 12.9 5.6 8.8 76 2.1 SSW 37 57 20 31 1011.5 1011.5 0.4
19/12:30pm 12.9 5.7 9.0 77 2.0 SSW 37 54 20 29 1011.5 1011.5 0.4
19/12:00pm 12.9 6.1 9.4 79 1.8 SW 35 48 19 26 1011.5 1011.5 0.4
19/11:30am 12.9 6.7 9.4 79 1.8 SW 32 46 17 25 1011.2 1011.2 0.4
19/11:00am 13.5 7.6 10.5 82 1.6 SW 32 39 17 21 1010.8 1010.8 0.4
19/10:30am 12.4 7.3 10.6 89 0.9 SW 28 35 15 19 1010.5 1010.5 0.4
19/10:00am 12.4 6.5 10.3 87 1.1 SW 32 44 17 24 1010.0 1010.0 0.4
19/09:30am 12.8 6.8 10.0 83 1.4 SW 32 43 17 23 1009.7 1009.7 0.0
19/09:00am 12.6 7.3 9.8 83 1.4 SSW 28 37 15 20 1009.0 1009.0 3.6
19/08:30am 12.1 6.7 9.5 84 1.3 SSW 28 44 15 24 1008.4 1008.4 3.6
19/08:00am 12.1 7.1 9.5 84 1.3 SSW 26 35 14 19 1008.2 1008.2 3.6
19/07:30am 11.4 6.6 8.8 84 1.3 SW 24 35 13 19 1007.5 1007.5 3.6
19/07:00am 11.0 7.2 9.1 88 0.9 SW 19 24 10 13 1007.1 1007.1 3.6
19/06:30am 10.7 7.5 9.9 95 0.4 WSW 17 22 9 12 1006.7 1006.7 3.6
19/06:00am 9.2 7.1 8.4 95 0.4 NW 9 15 5 8 1006.4 1006.4 3.6
19/05:30am 9.3 6.9 8.5 95 0.4 WNW 11 17 6 9 1006.2 1006.2 3.4
19/05:00am 9.2 6.7 8.4 95 0.4 NW 11 20 6 11 1005.6 1005.6 2.8
19/04:30am 9.3 6.5 8.4 94 0.4 NW 13 20 7 11 1005.4 1005.4 2.6
19/04:00am 9.1 6.2 8.2 94 0.4 NW 13 19 7 10 1005.2 1005.2 2.0
19/03:30am 9.0 6.0 7.9 93 0.5 NW 13 20 7 11 1005.2 1005.2 1.8
19/03:00am 8.8 5.8 7.7 93 0.5 NW 13 19 7 10 1005.1 1005.1 1.4
19/02:30am 8.7 5.2 7.3 91 0.7 NW 15 22 8 12 1005.1 1005.1 1.0
19/02:00am 8.8 5.7 7.1 89 0.8 NW 13 17 7 9 1005.1 1005.1 0.8
19/01:30am 8.9 5.6 6.5 85 1.1 NW 13 20 7 11 1005.0 1005.0 0.4
19/01:00am 9.1 5.8 6.4 83 1.3 NW 13 22 7 12 1004.9 1004.9 0.4

Other Formats:

Comma delimited format used in spreadsheet applications
http://www.bom.gov.au/fwo/IDV60801/IDV60801.94886.axf

JavaScript Object Notation format (JSON) in row-major order
http://www.bom.gov.au/fwo/IDV60801/IDV60801.94886.json